createdAt,value
2019-05-12T00:01:48.981Z,15.32
2019-05-12T00:04:23.344Z,15.38
2019-05-12T00:06:58.575Z,15.48
2019-05-12T00:09:32.939Z,14.45
2019-05-12T00:12:08.228Z,14.78
2019-05-12T00:14:42.472Z,14.78
2019-05-12T00:17:18.761Z,15.37
2019-05-12T00:19:52.658Z,13.90
2019-05-12T00:22:28.753Z,15.38
2019-05-12T00:25:03.291Z,14.83
2019-05-12T00:27:38.764Z,14.33
2019-05-12T00:30:19.922Z,13.15
2019-05-12T00:32:55.421Z,13.55
2019-05-12T00:35:30.061Z,12.23
2019-05-12T00:38:05.021Z,13.05
2019-05-12T00:40:39.881Z,12.93
2019-05-12T00:43:14.764Z,11.33
2019-05-12T00:45:48.856Z,11.25
2019-05-12T00:48:28.443Z,11.20
2019-05-12T00:51:02.908Z,11.48
2019-05-12T00:53:42.746Z,11.33
2019-05-12T00:56:13.013Z,12.37
2019-05-12T00:58:48.747Z,10.78
2019-05-12T01:01:23.274Z,10.35
2019-05-12T01:03:58.094Z,10.43
2019-05-12T01:06:32.687Z,10.32
2019-05-12T01:09:08.733Z,11.18
2019-05-12T01:11:43.537Z,11.70
2019-05-12T01:14:18.622Z,10.65
2019-05-12T01:16:53.531Z,11.00
2019-05-12T01:19:29.013Z,10.55
2019-05-12T01:22:03.659Z,10.20
2019-05-12T01:24:38.423Z,11.00
2019-05-12T01:27:13.073Z,11.15
2019-05-12T01:29:48.064Z,10.65
2019-05-12T01:32:33.337Z,11.35
2019-05-12T01:35:08.479Z,9.93
2019-05-12T01:37:43.864Z,11.10
2019-05-12T01:40:19.032Z,10.63
2019-05-12T01:42:53.790Z,10.05
2019-05-12T01:45:28.952Z,10.77
2019-05-12T01:48:03.575Z,10.38
2019-05-12T01:50:38.640Z,11.08
2019-05-12T01:53:13.257Z,10.63
2019-05-12T01:55:48.875Z,10.25
2019-05-12T01:58:24.473Z,10.50
2019-05-12T02:00:59.019Z,10.48
2019-05-12T02:03:37.539Z,10.75
2019-05-12T02:06:11.366Z,10.78
2019-05-12T02:08:53.949Z,10.10
2019-05-12T02:11:34.146Z,10.45
2019-05-12T02:14:09.443Z,11.43
2019-05-12T02:16:43.581Z,11.83
2019-05-12T02:19:18.389Z,10.72
2019-05-12T02:21:52.911Z,10.65
2019-05-12T02:24:30.347Z,10.63
2019-05-12T02:27:02.826Z,10.48
2019-05-12T02:29:38.470Z,10.72
2019-05-12T02:32:12.960Z,10.60
2019-05-12T02:34:47.420Z,10.35
2019-05-12T02:37:21.932Z,11.03
2019-05-12T02:39:56.479Z,11.00
2019-05-12T02:42:30.794Z,11.05
2019-05-12T02:45:05.786Z,10.32
2019-05-12T02:47:40.480Z,10.40
2019-05-12T02:50:14.929Z,10.15
2019-05-12T02:52:49.483Z,9.90
2019-05-12T02:55:25.711Z,9.65
2019-05-12T02:58:00.278Z,9.55
2019-05-12T03:00:35.658Z,9.40
2019-05-12T03:03:10.669Z,10.00
2019-05-12T03:05:45.236Z,10.45
2019-05-12T03:08:20.084Z,9.75
2019-05-12T03:10:55.206Z,9.43
2019-05-12T03:13:30.447Z,10.17
2019-05-12T03:16:05.198Z,9.63
2019-05-12T03:18:40.263Z,9.53
2019-05-12T03:21:15.408Z,9.90
2019-05-12T03:23:49.881Z,9.30
2019-05-12T03:26:24.864Z,9.65
2019-05-12T03:28:59.986Z,10.32
2019-05-12T03:31:39.712Z,10.45
2019-05-12T03:34:11.527Z,10.28
2019-05-12T03:36:51.598Z,10.65
2019-05-12T03:39:25.101Z,10.35
2019-05-12T03:42:18.445Z,10.05
2019-05-12T03:44:54.831Z,10.18
2019-05-12T03:47:29.250Z,9.58
2019-05-12T03:50:04.603Z,9.70
2019-05-12T03:52:39.422Z,9.08
2019-05-12T03:55:30.806Z,9.70
2019-05-12T03:57:51.035Z,9.83
2019-05-12T04:00:25.861Z,10.25
2019-05-12T04:03:00.925Z,9.70
2019-05-12T04:05:36.392Z,10.10
2019-05-12T04:08:15.392Z,10.18
2019-05-12T04:10:47.621Z,10.20
2019-05-12T04:13:26.183Z,10.25
2019-05-12T04:15:58.829Z,9.35
2019-05-12T04:18:34.989Z,9.63
2019-05-12T04:21:09.262Z,9.23
2019-05-12T04:23:44.420Z,9.30
2019-05-12T04:26:19.007Z,10.35
2019-05-12T04:28:55.415Z,9.13
2019-05-12T04:31:30.061Z,9.28
2019-05-12T04:34:05.130Z,9.25
2019-05-12T04:36:40.104Z,9.88
2019-05-12T04:39:14.848Z,8.93
2019-05-12T04:41:49.373Z,9.75
2019-05-12T04:44:25.158Z,10.20
2019-05-12T04:47:00.626Z,10.68
2019-05-12T04:49:35.358Z,9.45
2019-05-12T04:52:09.719Z,10.48
2019-05-12T04:54:44.555Z,9.88
2019-05-12T04:57:21.129Z,9.50
2019-05-12T04:59:56.206Z,11.30
2019-05-12T05:02:30.719Z,11.10
2019-05-12T05:05:05.497Z,10.28
2019-05-12T05:07:39.935Z,10.50
2019-05-12T05:10:14.702Z,10.48
2019-05-12T05:12:49.305Z,10.70
2019-05-12T05:15:24.940Z,10.88
2019-05-12T05:17:59.636Z,10.30
2019-05-12T05:20:34.580Z,9.63
2019-05-12T05:23:09.239Z,10.72
2019-05-12T05:25:43.788Z,10.65
2019-05-12T05:28:17.822Z,9.50
2019-05-12T05:30:53.489Z,10.15
2019-05-12T05:33:28.158Z,10.68
2019-05-12T05:36:03.504Z,11.85
2019-05-12T05:38:38.422Z,11.70
2019-05-12T05:41:13.444Z,11.57
2019-05-12T05:43:48.617Z,10.43
2019-05-12T05:46:24.064Z,10.43
2019-05-12T05:48:58.644Z,10.63
2019-05-12T05:51:33.498Z,10.08
2019-05-12T05:54:08.082Z,10.00
2019-05-12T05:56:50.680Z,10.50
2019-05-12T05:59:24.156Z,11.38
2019-05-12T06:01:54.910Z,9.83
2019-05-12T06:04:29.267Z,10.58
2019-05-12T06:07:04.099Z,12.07
2019-05-12T06:09:38.566Z,10.75
2019-05-12T06:12:13.373Z,10.18
2019-05-12T06:14:54.512Z,11.78
2019-05-12T06:17:23.622Z,10.35
2019-05-12T06:19:59.057Z,10.32
2019-05-12T06:22:34.319Z,11.77
2019-05-12T06:25:08.924Z,11.38
2019-05-12T06:27:44.339Z,12.00
2019-05-12T06:30:20.072Z,11.75
2019-05-12T06:32:55.313Z,11.20
2019-05-12T06:35:30.973Z,11.38
2019-05-12T06:38:05.778Z,11.28
2019-05-12T06:40:41.062Z,11.80
2019-05-12T06:43:15.761Z,12.05
2019-05-12T06:45:50.139Z,11.03
2019-05-12T06:48:28.985Z,10.48
2019-05-12T06:51:00.460Z,11.57
2019-05-12T06:53:36.255Z,12.10
2019-05-12T06:56:17.591Z,10.90
2019-05-12T06:58:47.699Z,12.05
2019-05-12T07:01:24.217Z,11.33
2019-05-12T07:04:00.541Z,10.88
2019-05-12T07:06:34.555Z,11.08
2019-05-12T07:09:16.265Z,11.48
2019-05-12T07:11:53.162Z,11.33
2019-05-12T07:14:26.982Z,11.10
2019-05-12T07:17:05.677Z,11.15
2019-05-12T07:19:37.845Z,14.07
2019-05-12T07:22:22.395Z,15.30
2019-05-12T07:24:51.995Z,16.62
2019-05-12T07:27:36.724Z,16.97
2019-05-12T07:30:05.020Z,16.25
2019-05-12T07:32:39.748Z,15.23
2019-05-12T07:35:14.752Z,15.70
2019-05-12T07:37:53.903Z,14.73
2019-05-12T07:40:30.019Z,13.20
2019-05-12T07:43:04.208Z,12.88
2019-05-12T07:45:41.361Z,12.23
2019-05-12T07:48:15.841Z,13.13
2019-05-12T07:50:56.479Z,12.73
2019-05-12T07:53:28.603Z,13.57
2019-05-12T07:56:05.353Z,13.45
2019-05-12T07:58:41.025Z,13.68
2019-05-12T08:01:18.351Z,13.60
2019-05-12T08:03:59.306Z,16.12
2019-05-12T08:06:34.648Z,16.48
2019-05-12T08:09:05.086Z,17.73
2019-05-12T08:11:39.648Z,17.15
2019-05-12T08:14:24.803Z,17.40
2019-05-12T08:16:50.780Z,17.82
2019-05-12T08:19:28.628Z,16.10
2019-05-12T08:22:04.139Z,14.58
2019-05-12T08:24:43.507Z,15.68
2019-05-12T08:27:18.049Z,14.83
2019-05-12T08:30:01.246Z,16.77
2019-05-12T08:32:30.324Z,17.12
2019-05-12T08:35:05.162Z,17.05
2019-05-12T08:37:40.778Z,14.00
2019-05-12T08:40:15.523Z,12.80
2019-05-12T08:42:50.561Z,15.40
2019-05-12T08:45:33.344Z,15.90
2019-05-12T08:48:00.589Z,15.83
2019-05-12T08:50:36.177Z,14.50
2019-05-12T08:53:19.980Z,14.55
2019-05-12T08:55:46.959Z,15.50
2019-05-12T08:58:31.423Z,14.90
2019-05-12T09:00:57.621Z,14.38
2019-05-12T09:03:33.502Z,14.20
2019-05-12T09:06:09.254Z,15.43
2019-05-12T09:08:49.233Z,13.63
2019-05-12T09:11:20.612Z,13.32
2019-05-12T09:14:00.717Z,13.58
2019-05-12T09:16:33.568Z,13.83
2019-05-12T09:19:10.270Z,13.72
2019-05-12T09:21:44.357Z,16.30
2019-05-12T09:24:26.873Z,15.23
2019-05-12T09:26:59.105Z,14.23
2019-05-12T09:29:34.055Z,15.25
2019-05-12T09:32:09.603Z,15.37
2019-05-12T09:34:52.216Z,15.83
2019-05-12T09:37:20.040Z,16.73
2019-05-12T09:39:54.855Z,16.32
2019-05-12T09:42:30.206Z,15.70
2019-05-12T09:45:08.040Z,14.95
2019-05-12T09:47:40.811Z,16.17
2019-05-12T09:50:18.748Z,16.82
2019-05-12T09:52:54.985Z,17.77
2019-05-12T09:55:27.376Z,17.10
2019-05-12T09:58:04.058Z,15.93
2019-05-12T10:00:39.497Z,19.37
2019-05-12T10:03:14.370Z,18.42
2019-05-12T10:05:48.972Z,20.48
2019-05-12T10:08:24.200Z,19.30
2019-05-12T10:10:58.839Z,22.48
2019-05-12T10:13:33.899Z,20.52
2019-05-12T10:16:08.952Z,23.75
2019-05-12T10:18:51.161Z,26.00
2019-05-12T10:21:19.695Z,25.27
2019-05-12T10:24:00.255Z,25.80
2019-05-12T10:26:31.116Z,26.42
2019-05-12T10:29:16.330Z,27.95
2019-05-12T10:31:44.411Z,27.17
2019-05-12T10:34:24.282Z,26.67
2019-05-12T10:36:59.087Z,26.57
2019-05-12T10:39:35.225Z,29.43
2019-05-12T10:42:09.349Z,27.53
2019-05-12T10:44:43.895Z,25.20
2019-05-12T10:47:18.339Z,28.10
2019-05-12T10:49:53.799Z,26.00
2019-05-12T10:52:29.518Z,27.53
2019-05-12T10:55:04.571Z,27.43
2019-05-12T10:57:39.360Z,22.47
2019-05-12T11:00:19.620Z,21.48
2019-05-12T11:02:53.355Z,23.27
2019-05-12T11:05:27.563Z,23.00
2019-05-12T11:08:06.488Z,21.33
2019-05-12T11:10:38.259Z,21.07
2019-05-12T11:13:14.191Z,23.98
2019-05-12T11:15:49.713Z,21.20
2019-05-12T11:18:34.022Z,22.17
2019-05-12T11:21:18.328Z,24.07
2019-05-12T11:23:59.877Z,23.85
2019-05-12T11:26:43.122Z,27.17
2019-05-12T11:29:24.314Z,24.17
2019-05-12T11:32:00.037Z,26.45
2019-05-12T11:34:35.717Z,24.97
2019-05-12T11:37:09.975Z,22.40
2019-05-12T11:39:47.529Z,21.00
2019-05-12T11:42:23.874Z,19.17
2019-05-12T11:44:58.393Z,19.43
2019-05-12T11:47:34.619Z,19.87
2019-05-12T11:50:09.997Z,17.33
2019-05-12T11:52:45.986Z,17.90
2019-05-12T11:55:21.270Z,16.27
2019-05-12T11:58:00.381Z,16.97
2019-05-12T12:00:33.764Z,14.47
2019-05-12T12:03:17.797Z,13.70
2019-05-12T12:05:44.338Z,14.03
2019-05-12T12:08:19.560Z,12.27
2019-05-12T12:10:54.310Z,12.50
2019-05-12T12:13:30.154Z,13.48
2019-05-12T12:16:06.888Z,12.97
2019-05-12T12:18:48.607Z,13.03
2019-05-12T12:21:16.663Z,13.83
2019-05-12T12:23:53.448Z,13.03
2019-05-12T12:26:30.541Z,12.40
2019-05-12T12:29:04.910Z,12.43
2019-05-12T12:31:53.252Z,12.33
2019-05-12T12:34:30.056Z,11.43
2019-05-12T12:37:04.994Z,12.83
2019-05-12T12:39:39.167Z,12.25
2019-05-12T12:42:13.974Z,12.17
2019-05-12T12:44:53.582Z,12.17
2019-05-12T12:47:25.611Z,12.30
2019-05-12T12:50:00.253Z,12.90
2019-05-12T12:52:38.786Z,14.00
2019-05-12T12:55:10.350Z,13.10
2019-05-12T12:57:46.397Z,12.43
2019-05-12T13:00:29.744Z,12.60
2019-05-12T13:02:56.099Z,12.00
2019-05-12T13:05:31.341Z,12.43
2019-05-12T13:08:06.019Z,12.53
2019-05-12T13:10:46.288Z,11.73
2019-05-12T13:13:16.583Z,12.13
2019-05-12T13:15:50.860Z,12.13
2019-05-12T13:18:33.178Z,11.57
2019-05-12T13:21:03.589Z,11.97
2019-05-12T13:23:41.190Z,10.67
2019-05-12T13:26:14.121Z,12.60
2019-05-12T13:28:53.420Z,10.83
2019-05-12T13:31:25.764Z,12.50
2019-05-12T13:34:00.162Z,12.73
2019-05-12T13:36:37.821Z,13.35
2019-05-12T13:39:16.219Z,12.53
2019-05-12T13:41:50.392Z,13.27
2019-05-12T13:44:24.068Z,13.37
2019-05-12T13:46:58.891Z,13.83
2019-05-12T13:49:36.170Z,11.80
2019-05-12T13:52:10.230Z,11.90
2019-05-12T13:54:45.176Z,12.27
2019-05-12T13:57:19.936Z,11.57
2019-05-12T14:00:04.183Z,11.40
2019-05-12T14:02:33.470Z,12.33
2019-05-12T14:05:11.302Z,11.37
2019-05-12T14:07:43.672Z,12.17
2019-05-12T14:10:18.339Z,10.60
2019-05-12T14:12:54.425Z,11.13
2019-05-12T14:15:28.334Z,11.70
2019-05-12T14:18:04.119Z,10.90
2019-05-12T14:20:38.865Z,11.60
2019-05-12T14:23:14.647Z,12.17
2019-05-12T14:25:49.197Z,12.40
2019-05-12T14:28:24.901Z,12.57
2019-05-12T14:30:59.318Z,12.83
2019-05-12T14:33:35.900Z,11.47
2019-05-12T14:36:13.699Z,11.87
2019-05-12T14:38:48.428Z,10.60
2019-05-12T14:41:26.819Z,11.43
2019-05-12T14:44:03.685Z,11.43
2019-05-12T14:46:39.995Z,11.05
2019-05-12T14:49:20.429Z,10.95
2019-05-12T14:51:53.702Z,11.90
2019-05-12T14:54:28.065Z,11.70
2019-05-12T14:57:04.108Z,11.20
2019-05-12T14:59:41.217Z,11.35
2019-05-12T15:02:19.505Z,11.60
2019-05-12T15:04:54.152Z,10.43
2019-05-12T15:07:27.837Z,11.33
2019-05-12T15:10:08.577Z,11.20
2019-05-12T15:12:40.673Z,12.07
2019-05-12T15:15:20.341Z,11.43
2019-05-12T15:17:55.051Z,11.27
2019-05-12T15:20:30.039Z,11.83
2019-05-12T15:23:04.448Z,11.40
2019-05-12T15:25:39.026Z,11.25
2019-05-12T15:28:14.549Z,11.57
2019-05-12T15:30:48.898Z,12.87
2019-05-12T15:33:24.276Z,24.90
2019-05-12T15:35:59.555Z,34.27
2019-05-12T15:38:34.305Z,30.20
2019-05-12T15:41:10.566Z,21.97
2019-05-12T15:43:48.957Z,17.15
2019-05-12T15:46:24.532Z,15.53
2019-05-12T15:49:03.437Z,12.95
2019-05-12T15:51:50.970Z,12.78
2019-05-12T15:54:16.326Z,13.50
2019-05-12T15:56:51.071Z,13.88
2019-05-12T15:59:26.971Z,13.83
2019-05-12T16:02:12.288Z,14.43
2019-05-12T16:04:42.759Z,15.23
2019-05-12T16:07:15.311Z,15.97
2019-05-12T16:09:50.032Z,15.80
2019-05-12T16:12:27.183Z,16.43
2019-05-12T16:15:04.450Z,15.43
2019-05-12T16:17:37.725Z,16.62
2019-05-12T16:20:14.215Z,17.57
2019-05-12T16:22:53.191Z,18.13
2019-05-12T16:25:31.126Z,17.62
2019-05-12T16:28:07.549Z,18.17
2019-05-12T16:30:47.202Z,19.57
2019-05-12T16:33:22.118Z,19.20
2019-05-12T16:36:00.076Z,21.10
2019-05-12T16:38:35.161Z,20.23
2019-05-12T16:41:14.078Z,19.67
2019-05-12T16:43:53.614Z,14.60
2019-05-12T16:46:27.659Z,10.37
2019-05-12T16:49:03.353Z,10.20
2019-05-12T16:51:38.019Z,8.57
2019-05-12T16:54:12.663Z,7.87
2019-05-12T16:56:46.901Z,7.95
2019-05-12T16:59:24.135Z,6.63
2019-05-12T17:01:59.441Z,6.57
2019-05-12T17:04:34.731Z,5.93
2019-05-12T17:07:09.860Z,5.33
2019-05-12T17:09:49.199Z,5.27
2019-05-12T17:12:31.879Z,4.67
2019-05-12T17:15:05.589Z,4.93
2019-05-12T17:17:40.351Z,4.87
2019-05-12T17:20:16.150Z,4.33
2019-05-12T17:22:55.150Z,4.53
2019-05-12T17:25:29.960Z,4.87
2019-05-12T17:28:05.850Z,4.72
2019-05-12T17:30:40.498Z,4.73
2019-05-12T17:33:22.405Z,4.20
2019-05-12T17:35:53.436Z,5.27
2019-05-12T17:38:30.094Z,4.20
2019-05-12T17:41:03.912Z,4.43
2019-05-12T17:43:45.112Z,4.58
2019-05-12T17:46:18.178Z,4.80
2019-05-12T17:48:53.253Z,4.65
2019-05-12T17:51:31.122Z,4.83
2019-05-12T17:54:07.139Z,4.60
2019-05-12T17:56:41.668Z,4.60
2019-05-12T17:59:23.468Z,5.20
2019-05-12T18:01:57.378Z,5.50
2019-05-12T18:04:37.042Z,5.20
2019-05-12T18:07:18.792Z,4.83
2019-05-12T18:09:50.515Z,5.60
2019-05-12T18:12:26.876Z,5.90
2019-05-12T18:15:04.256Z,5.67
2019-05-12T18:17:44.439Z,6.17
2019-05-12T18:20:17.812Z,5.73
2019-05-12T18:22:53.991Z,4.92
2019-05-12T18:25:30.702Z,5.23
2019-05-12T18:28:05.541Z,4.10
2019-05-12T18:30:40.214Z,3.63
2019-05-12T18:33:29.621Z,3.35
2019-05-12T18:35:54.529Z,3.43
2019-05-12T18:38:32.009Z,3.50
2019-05-12T18:41:08.735Z,3.40
2019-05-12T18:43:43.523Z,3.77
2019-05-12T18:46:18.187Z,4.10
2019-05-12T18:49:02.596Z,3.27
2019-05-12T18:51:29.638Z,3.60
2019-05-12T18:54:10.611Z,3.53
2019-05-12T18:56:40.402Z,3.92
2019-05-12T18:59:16.299Z,4.12
2019-05-12T19:01:50.576Z,3.63
2019-05-12T19:04:24.926Z,3.62
2019-05-12T19:07:05.660Z,3.87
2019-05-12T19:09:44.756Z,4.00
2019-05-12T19:12:21.121Z,3.70
2019-05-12T19:14:54.683Z,4.00
2019-05-12T19:17:29.206Z,3.75
2019-05-12T19:20:05.242Z,4.50
2019-05-12T19:22:44.539Z,4.67
2019-05-12T19:25:19.423Z,4.30
2019-05-12T19:28:02.232Z,4.80
2019-05-12T19:30:30.924Z,4.80
2019-05-12T19:33:10.375Z,4.63
2019-05-12T19:36:04.267Z,5.08
2019-05-12T19:38:35.775Z,5.37
2019-05-12T19:41:10.297Z,5.13
2019-05-12T19:43:49.545Z,5.35
2019-05-12T19:46:24.053Z,5.30
2019-05-12T19:48:59.608Z,5.10
2019-05-12T19:51:35.157Z,4.85
2019-05-12T19:54:09.837Z,5.05
2019-05-12T19:56:45.442Z,4.97
2019-05-12T19:59:19.980Z,5.15
2019-05-12T20:01:55.634Z,5.20
2019-05-12T20:04:34.521Z,5.55
2019-05-12T20:07:09.302Z,6.17
2019-05-12T20:09:48.423Z,4.83
2019-05-12T20:12:20.681Z,5.62
2019-05-12T20:14:56.934Z,5.60
2019-05-12T20:17:33.856Z,5.35
2019-05-12T20:20:08.027Z,5.10
2019-05-12T20:22:44.659Z,5.42
2019-05-12T20:25:19.783Z,5.65
2019-05-12T20:27:55.979Z,6.60
2019-05-12T20:30:31.316Z,5.62
2019-05-12T20:33:08.069Z,6.23
2019-05-12T20:35:47.417Z,6.30
2019-05-12T20:38:24.437Z,5.97
2019-05-12T20:40:55.437Z,6.00
2019-05-12T20:43:36.700Z,5.50
2019-05-12T20:46:06.761Z,6.37
2019-05-12T20:48:41.418Z,5.92
2019-05-12T20:51:20.173Z,5.83
2019-05-12T20:53:53.742Z,6.13
2019-05-12T20:56:28.389Z,5.80
2019-05-12T20:59:04.273Z,6.03
2019-05-12T21:01:38.858Z,6.43
2019-05-12T21:04:14.248Z,6.33
2019-05-12T21:06:48.971Z,6.37
2019-05-12T21:09:23.793Z,6.28
2019-05-12T21:11:59.148Z,6.23
2019-05-12T21:14:34.501Z,6.92
2019-05-12T21:17:11.489Z,6.20
2019-05-12T21:19:55.755Z,6.00
2019-05-12T21:22:20.656Z,5.55
2019-05-12T21:24:56.297Z,6.13
2019-05-12T21:27:30.567Z,6.00
2019-05-12T21:30:09.869Z,5.73
2019-05-12T21:32:40.883Z,6.28
2019-05-12T21:35:22.008Z,5.80
2019-05-12T21:37:51.074Z,6.47
2019-05-12T21:40:44.204Z,6.72
2019-05-12T21:43:18.634Z,7.37
2019-05-12T21:45:54.537Z,7.57
2019-05-12T21:48:33.884Z,8.63
2019-05-12T21:51:09.726Z,8.47
2019-05-12T21:53:56.103Z,9.00
2019-05-12T21:56:37.831Z,8.03
2019-05-12T21:59:15.572Z,8.20
2019-05-12T22:01:53.284Z,8.20
2019-05-12T22:04:26.803Z,8.20
2019-05-12T22:07:01.643Z,7.73
2019-05-12T22:09:41.824Z,7.03
2019-05-12T22:12:12.118Z,7.67
2019-05-12T22:14:46.442Z,6.50
2019-05-12T22:17:21.021Z,6.83
2019-05-12T22:19:56.550Z,6.97
2019-05-12T22:22:32.840Z,6.83
2019-05-12T22:25:09.742Z,7.20
2019-05-12T22:27:43.711Z,6.27
2019-05-12T22:30:18.691Z,6.70
2019-05-12T22:32:54.145Z,6.80
2019-05-12T22:35:28.931Z,6.60
2019-05-12T22:38:09.419Z,6.25
2019-05-12T22:40:39.334Z,7.07
2019-05-12T22:43:14.280Z,6.97
2019-05-12T22:45:49.516Z,7.03
2019-05-12T22:48:29.517Z,8.03
2019-05-12T22:51:05.429Z,8.60
2019-05-12T22:53:37.378Z,9.17
2019-05-12T22:56:13.616Z,8.67
2019-05-12T22:58:51.960Z,8.93
2019-05-12T23:01:25.260Z,8.98
2019-05-12T23:03:59.318Z,9.65
2019-05-12T23:06:42.236Z,8.77
2019-05-12T23:09:12.265Z,9.63
2019-05-12T23:11:49.047Z,9.40
2019-05-12T23:14:25.109Z,9.77
2019-05-12T23:17:05.581Z,10.20
2019-05-12T23:19:44.308Z,10.13
2019-05-12T23:22:16.594Z,11.90
2019-05-12T23:24:50.376Z,9.83
2019-05-12T23:27:29.753Z,9.50
2019-05-12T23:30:10.995Z,8.83
2019-05-12T23:32:42.889Z,9.60
2019-05-12T23:35:15.831Z,8.63
2019-05-12T23:37:53.479Z,8.63
2019-05-12T23:40:28.409Z,9.53
2019-05-12T23:43:06.177Z,8.67
2019-05-12T23:45:40.936Z,7.97
2019-05-12T23:48:15.811Z,7.53
2019-05-12T23:50:50.122Z,7.77
2019-05-12T23:53:25.838Z,9.33
2019-05-12T23:56:00.306Z,8.70
2019-05-12T23:58:35.078Z,8.93
